This is the latest recevied weather packets stored in our database for station/object N2OCK. If no packets are shown the sender has not sent any weather packets the latest 1 day(s).
| Time | Temp. | Humidity | Pressure | Rain* | Wind** | Luminosity | Snow |
|---|---|---|---|---|---|---|---|
| 1836274772 | 19.44° C | 65% | 1019.3 hPa | 0 mm | 0 m/s | 0 W/m² | - |
| 1836274470 | 19.44° C | 68% | 1019.3 hPa | 0 mm | 0.45 m/s, 101° | 0 W/m² | - |
| 1836274324 | 20° C | 62% | 1019.3 hPa | 0 mm | 0 m/s | 0 W/m² | - |
| 1836274168 | 18.89° C | 70% | 1019.1 hPa | 0 mm | 0.89 m/s, 39° | 0 W/m² | - |
| 1778049079 | 13.89° C | 89% | 1011.7 hPa | 0 mm | 0.89 m/s, 210° | 0 W/m² | - |
| 1778048778 | 13.89° C | 89% | 1011.5 hPa | 0 mm | 2.24 m/s, 187° | 0 W/m² | - |
| 1778048475 | 13.89° C | 89% | 1011.5 hPa | 0 mm | 2.68 m/s, 215° | 0 W/m² | - |
| 1778048170 | 13.89° C | 89% | 1011.5 hPa | 0 mm | 2.68 m/s, 239° | 0 W/m² | - |
| 1778047868 | 13.89° C | 89% | 1011.4 hPa | 0 mm | 1.34 m/s, 239° | 0 W/m² | - |
| 1778047574 | 14.44° C | 89% | 1011.4 hPa | 0 mm | 1.34 m/s, 187° | 0 W/m² | - |
| 1778047263 | 14.44° C | 88% | 1011.5 hPa | 0 mm | 1.79 m/s, 197° | 0 W/m² | - |
| 1778046961 | 14.44° C | 88% | 1011.4 hPa | 0 mm | 2.68 m/s, 217° | 0 W/m² | - |
| 1778046657 | 14.44° C | 88% | 1011.5 hPa | 0 mm | 3.13 m/s, 241° | 0 W/m² | - |
| 1778046354 | 14.44° C | 88% | 1011.6 hPa | 0 mm | 1.79 m/s, 245° | 0 W/m² | - |
| 1778046050 | 14.44° C | 88% | 1011.7 hPa | 0 mm | 2.24 m/s, 255° | 0 W/m² | - |
| 1778045748 | 14.44° C | 87% | 1011.7 hPa | 0 mm | 1.34 m/s, 206° | 0 W/m² | - |
| 1778045446 | 14.44° C | 87% | 1011.8 hPa | 0 mm | 1.79 m/s, 213° | 0 W/m² | - |
| 1778045144 | 14.44° C | 87% | 1011.9 hPa | 0 mm | 2.24 m/s, 228° | 0 W/m² | - |
| 1778044842 | 14.44° C | 87% | 1011.8 hPa | 0 mm | 1.34 m/s, 240° | 0 W/m² | - |
| 1778044538 | 14.44° C | 86% | 1011.8 hPa | 0 mm | 2.68 m/s, 212° | 0 W/m² | - |
| 1778044235 | 14.44° C | 86% | 1011.7 hPa | 0 mm | 2.24 m/s, 261° | 0 W/m² | - |
| 1778043933 | 14.44° C | 86% | 1011.7 hPa | 0 mm | 2.24 m/s, 228° | 0 W/m² | - |
| 1778043630 | 14.44° C | 86% | 1011.9 hPa | 0 mm | 3.58 m/s, 261° | 0 W/m² | - |
| 1778043327 | 15° C | 86% | 1011.8 hPa | 0 mm | 0.89 m/s, 232° | 0 W/m² | - |
| 1778043023 | 15° C | 85% | 1011.8 hPa | 0 mm | 1.79 m/s, 296° | 0 W/m² | - |
* Rain latest hour (hover to see other rain measurements)
** Current wind speed in m/s (hover to see current wind gust speed)